Monte Toledo — CQRA — position and weather

sailwx.info

Track history (hours):
 
Tides and Currents Weather Stations Pressure Air Temp Water Temp Dewpoint Dewpoint Depression Visibility Wind Speed Wind Dir Waves Ship Positions

Monte Toledo

Last reported at 2016-Jun-14 00:17 UTC. Time now 2016-Jul-02 03:59 UTC.
Position N 13°26' W 017°44'.
Warning: this ship's position is 18 days out of date.

Length 274 m; draft 9 m.

Type: Tanker. MMSI: 255740000.

Date/timePositionNaut miles runAvg speedWind from/ knotsBaromVisibWave heightAir tempDewpointWater temp
2016-Jun-14 00:17N 13°26' W 017°44'912.4
2016-Jun-13 23:33N 13°34' W 017°45'1312.4
2016-Jun-13 22:32N 13°47' W 017°46'1312.5
2016-Jun-13 21:28N 14°00' W 017°47'1212.8
2016-Jun-13 20:31N 14°13' W 017°47'2412.5
2016-Jun-13 18:33N 14°37' W 017°47'1211.9
2016-Jun-13 17:33N 14°49' W 017°47'  
2016-Jun-11 03:22N 27°47' W 013°28'2713.9
2016-Jun-11 01:24N 28°10' W 013°11'1113.5
2016-Jun-11 00:33N 28°19' W 013°04'1513.2
2016-Jun-10 23:24N 28°32' W 012°54'1113.2
2016-Jun-10 22:33N 28°41' W 012°48'35413.1
2016-Jun-09 19:30N 33°28' W 008°45'14613.1
2016-Jun-09 08:25N 35°21' W 006°54'1113.3
2016-Jun-09 07:33N 35°29' W 006°45'6312.6
2016-Jun-09 02:33N 35°58' W 005°35'1211.5
2016-Jun-09 01:34N 36°03' W 005°23'6 6.4
2016-Jun-09 00:33N 36°10' W 005°25'0 0.1
2016-Jun-08 23:33N 36°10' W 005°25'0 0.0
2016-Jun-08 22:24N 36°10' W 005°25'0 0.2
2016-Jun-08 21:30N 36°10' W 005°25'0 0.2
2016-Jun-08 20:30N 36°10' W 005°25'0 0.1
2016-Jun-08 18:33N 36°10' W 005°25'0 0.1
2016-Jun-08 17:24N 36°10' W 005°25'0 0.1
2016-Jun-08 16:06N 36°10' W 005°25'0 0.0
2016-Jun-08 15:33N 36°10' W 005°25'0 0.2
2016-Jun-08 14:33N 36°10' W 005°25'0 0.0
2016-Jun-08 09:30N 36°10' W 005°25'0 0.1
2016-Jun-08 08:24N 36°10' W 005°25'0 0.0
2016-Jun-08 05:30N 36°10' W 005°25'0 0.3
2016-Jun-08 04:33N 36°10' W 005°25'0 0.1
2016-Jun-08 03:33N 36°10' W 005°25'0 0.2
2016-Jun-08 02:30N 36°10' W 005°25'0 0.1
2016-Jun-08 01:33N 36°10' W 005°25'0 0.0
2016-Jun-08 00:30N 36°10' W 005°25'0 0.2
2016-Jun-07 23:30N 36°10' W 005°25'0 0.0
2016-Jun-07 22:33N 36°10' W 005°25'0 0.0
2016-Jun-07 21:33N 36°10' W 005°25'0 0.0
2016-Jun-07 20:30N 36°10' W 005°25'2 1.6
2016-Jun-07 19:33N 36°09' W 005°24'4 3.7
2016-Jun-07 18:34N 36°05' W 005°22'5 4.9
2016-Jun-07 17:34N 36°03' W 005°17'1 0.8
2016-Jun-07 16:33N 36°03' W 005°17'1 1.5
2016-Jun-07 15:33N 36°03' W 005°19'1 1.2
2016-Jun-07 14:33N 36°04' W 005°18'12911.7
2016-Jun-07 03:31N 36°16' W 002°39'1512.9
2016-Jun-07 02:23N 36°19' W 002°21'1112.9
2016-Jun-07 01:33N 36°20' W 002°08'3712.1
2016-Jun-06 22:31N 36°26' W 001°23'1211.8
2016-Jun-06 21:29N 36°28' W 001°08'1412.5
2016-Jun-06 20:23N 36°30' W 000°51'1112.7
2016-Jun-06 19:33N 36°32' W 000°38'1313.5
2016-Jun-06 18:34N 36°33' W 000°21'1313.3
2016-Jun-06 17:33N 36°35' W 000°05'1313.2
2016-Jun-06 16:33N 36°37' E 000°11'1313.0
2016-Jun-06 15:33N 36°40' E 000°27'1313.2
2016-Jun-06 14:33N 36°42' E 000°43'1312.7
2016-Jun-06 13:33N 36°44' E 000°59'1313.0
2016-Jun-06 12:32N 36°46' E 001°15'1313.1
2016-Jun-06 11:31N 36°48' E 001°32'2512.8
2016-Jun-06 09:33N 36°52' E 002°03'1212.2
2016-Jun-06 08:33N 36°54' E 002°18'1312.5
2016-Jun-06 07:29N 36°57' E 002°34'3913.1
2016-Jun-06 04:32N 37°02' E 003°22'1313.0
2016-Jun-06 03:33N 37°05' E 003°38'41812.6
2016-Jun-04 18:26N 36°58' E 012°21'1112.9
2016-Jun-04 17:33N 36°53' E 012°34'1212.4
2016-Jun-04 16:33N 36°48' E 012°49'1212.6
2016-Jun-04 15:34N 36°44' E 013°03'1312.8
2016-Jun-04 14:34N 36°39' E 013°18'1312.7
2016-Jun-04 13:34N 36°34' E 013°32'1312.6
2016-Jun-04 12:34N 36°29' E 013°47'1313.2
2016-Jun-04 11:34N 36°24' E 014°02'1313.3
2016-Jun-04 10:34N 36°19' E 014°17'1313.0
2016-Jun-04 09:34N 36°14' E 014°32'1312.8
2016-Jun-04 08:33N 36°09' E 014°47'1312.9
2016-Jun-04 07:33N 36°05' E 015°02'1313.2
2016-Jun-04 06:34N 35°60' E 015°17'1313.3
2016-Jun-04 05:33N 35°55' E 015°32'1313.3
2016-Jun-04 04:33N 35°50' E 015°48'1313.4
2016-Jun-04 03:33N 35°45' E 016°03'1413.6
2016-Jun-04 02:33N 35°39' E 016°18'1413.8
2016-Jun-04 01:33N 35°34' E 016°34'  
Track history (hours):
 
Tides and Currents Weather Stations Pressure Air Temp Water Temp Dewpoint Dewpoint Depression Visibility Wind Speed Wind Dir Waves Ship Positions

Monte Toledo

Last reported at 2016-Jun-14 00:17 UTC. Time now 2016-Jul-02 03:59 UTC.
Position N 13°26' W 017°44'.
Warning: this ship's position is 18 days out of date.

Length 274 m; draft 9 m.

Type: Tanker. MMSI: 255740000.

Date/timePositionNaut miles runAvg speedWind from/ knotsBaromVisibWave heightAir tempDewpointWater temp
2016-Jun-14 00:17N 13°26' W 017°44'912.4
2016-Jun-13 23:33N 13°34' W 017°45'1312.4
2016-Jun-13 22:32N 13°47' W 017°46'1312.5
2016-Jun-13 21:28N 14°00' W 017°47'1212.8
2016-Jun-13 20:31N 14°13' W 017°47'2412.5
2016-Jun-13 18:33N 14°37' W 017°47'1211.9
2016-Jun-13 17:33N 14°49' W 017°47'  
2016-Jun-11 03:22N 27°47' W 013°28'2713.9
2016-Jun-11 01:24N 28°10' W 013°11'1113.5
2016-Jun-11 00:33N 28°19' W 013°04'1513.2
2016-Jun-10 23:24N 28°32' W 012°54'1113.2
2016-Jun-10 22:33N 28°41' W 012°48'35413.1
2016-Jun-09 19:30N 33°28' W 008°45'14613.1
2016-Jun-09 08:25N 35°21' W 006°54'1113.3
2016-Jun-09 07:33N 35°29' W 006°45'6312.6
2016-Jun-09 02:33N 35°58' W 005°35'1211.5
2016-Jun-09 01:34N 36°03' W 005°23'6 6.4
2016-Jun-09 00:33N 36°10' W 005°25'0 0.1
2016-Jun-08 23:33N 36°10' W 005°25'0 0.0
2016-Jun-08 22:24N 36°10' W 005°25'0 0.2
2016-Jun-08 21:30N 36°10' W 005°25'0 0.2
2016-Jun-08 20:30N 36°10' W 005°25'0 0.1
2016-Jun-08 18:33N 36°10' W 005°25'0 0.1
2016-Jun-08 17:24N 36°10' W 005°25'0 0.1
2016-Jun-08 16:06N 36°10' W 005°25'0 0.0
2016-Jun-08 15:33N 36°10' W 005°25'0 0.2
2016-Jun-08 14:33N 36°10' W 005°25'0 0.0
2016-Jun-08 09:30N 36°10' W 005°25'0 0.1
2016-Jun-08 08:24N 36°10' W 005°25'0 0.0
2016-Jun-08 05:30N 36°10' W 005°25'0 0.3
2016-Jun-08 04:33N 36°10' W 005°25'0 0.1
2016-Jun-08 03:33N 36°10' W 005°25'0 0.2
2016-Jun-08 02:30N 36°10' W 005°25'0 0.1
2016-Jun-08 01:33N 36°10' W 005°25'0 0.0
2016-Jun-08 00:30N 36°10' W 005°25'0 0.2
2016-Jun-07 23:30N 36°10' W 005°25'0 0.0
2016-Jun-07 22:33N 36°10' W 005°25'0 0.0
2016-Jun-07 21:33N 36°10' W 005°25'0 0.0
2016-Jun-07 20:30N 36°10' W 005°25'2 1.6
2016-Jun-07 19:33N 36°09' W 005°24'4 3.7
2016-Jun-07 18:34N 36°05' W 005°22'5 4.9
2016-Jun-07 17:34N 36°03' W 005°17'1 0.8
2016-Jun-07 16:33N 36°03' W 005°17'1 1.5
2016-Jun-07 15:33N 36°03' W 005°19'1 1.2
2016-Jun-07 14:33N 36°04' W 005°18'12911.7
2016-Jun-07 03:31N 36°16' W 002°39'1512.9
2016-Jun-07 02:23N 36°19' W 002°21'1112.9
2016-Jun-07 01:33N 36°20' W 002°08'3712.1
2016-Jun-06 22:31N 36°26' W 001°23'1211.8
2016-Jun-06 21:29N 36°28' W 001°08'1412.5
2016-Jun-06 20:23N 36°30' W 000°51'1112.7
2016-Jun-06 19:33N 36°32' W 000°38'1313.5
2016-Jun-06 18:34N 36°33' W 000°21'1313.3
2016-Jun-06 17:33N 36°35' W 000°05'1313.2
2016-Jun-06 16:33N 36°37' E 000°11'1313.0
2016-Jun-06 15:33N 36°40' E 000°27'1313.2
2016-Jun-06 14:33N 36°42' E 000°43'1312.7
2016-Jun-06 13:33N 36°44' E 000°59'1313.0
2016-Jun-06 12:32N 36°46' E 001°15'1313.1
2016-Jun-06 11:31N 36°48' E 001°32'2512.8
2016-Jun-06 09:33N 36°52' E 002°03'1212.2
2016-Jun-06 08:33N 36°54' E 002°18'1312.5
2016-Jun-06 07:29N 36°57' E 002°34'3913.1
2016-Jun-06 04:32N 37°02' E 003°22'1313.0
2016-Jun-06 03:33N 37°05' E 003°38'41812.6
2016-Jun-04 18:26N 36°58' E 012°21'1112.9
2016-Jun-04 17:33N 36°53' E 012°34'1212.4
2016-Jun-04 16:33N 36°48' E 012°49'1212.6
2016-Jun-04 15:34N 36°44' E 013°03'1312.8
2016-Jun-04 14:34N 36°39' E 013°18'1312.7
2016-Jun-04 13:34N 36°34' E 013°32'1312.6
2016-Jun-04 12:34N 36°29' E 013°47'1313.2
2016-Jun-04 11:34N 36°24' E 014°02'1313.3
2016-Jun-04 10:34N 36°19' E 014°17'1313.0
2016-Jun-04 09:34N 36°14' E 014°32'1312.8
2016-Jun-04 08:33N 36°09' E 014°47'1312.9
2016-Jun-04 07:33N 36°05' E 015°02'1313.2
2016-Jun-04 06:34N 35°60' E 015°17'1313.3
2016-Jun-04 05:33N 35°55' E 015°32'1313.3
2016-Jun-04 04:33N 35°50' E 015°48'1313.4
2016-Jun-04 03:33N 35°45' E 016°03'1413.6
2016-Jun-04 02:33N 35°39' E 016°18'1413.8
2016-Jun-04 01:33N 35°34' E 016°34'  

Dump ship's entire track history